Weather observations for the past three days for
Tulsa - Jones Jr. Airport
Imperial (Metric)
Date Time (cdt) Wind (mph) Vis. (mi.) Weather Sky Cond. Temperature (ºF) Relative Humidity Wind Chill (°F) Heat Index (°F) Pressure Precipitation (in)
Air Dwpt 6 hour altimeter (in) sea level (mb) 1 hr 3 hr 6 hr
Max. Min.
05 09:53 Calm 10.00 Fair CLR 87.1 72 61% 94 29.96 1014.8
05 08:53 Vrbl 3 10.00 Fair CLR 82.9 71.1 67% 88 29.96 1014.7
05 07:53 Calm 10.00 Fair CLR 77 72 85% 78 29.95 1014.2
05 06:53 Calm 10.00 Fair CLR 73.9 71.1 78.1 73.9 91% 29.94 1014.0
05 05:53 Calm 10.00 Fair CLR 75 71.1 88% 75 29.93 1013.7
05 04:53 Calm 10.00 Fair CLR 75 70 84% 75 29.92 1013.4
05 03:53 Calm 10.00 Fair CLR 75.9 71.1 85% 76 29.92 1013.2
05 02:53 Calm 10.00 Fair CLR 75.9 71.1 85% 76 29.92 1013.2
05 01:53 Calm 10.00 Fair CLR 77 70 79% 79 29.92 1013.2
05 00:53 Calm 10.00 Fair CLR 78.1 71.1 98.1 78.1 79% 80 29.92 1013.2
04 23:53 Calm 10.00 Fair CLR 79 71.1 77% 82 29.92 1013.2
04 22:53 Calm 10.00 Fair CLR 81 70 69% 84 29.91 1013.0
04 21:53 Calm 10.00 Fair CLR 82 70 67% 86 29.9 1012.6
04 20:53 Calm 10.00 Fair CLR 84 71.1 65% 89 29.87 1011.6
04 19:53 S 5 10.00 Fair CLR 96.1 66.9 39% 100 29.85 1011.1
04 18:53 S 8 10.00 Fair CLR 98.1 66.9 100 95 36% 103 29.85 1011.0
04 17:53 SE 6 10.00 Fair CLR 99 69.1 38% 105 29.85 1011.0
04 16:53 Vrbl 6 10.00 A Few Clouds FEW070 99 71.1 41% 107 29.86 1011.1
04 15:53 S 8 10.00 Fair CLR 99 70 39% 106 29.88 1011.7
04 14:53 S 12 G 17 10.00 A Few Clouds FEW060 97 71.1 43% 105 29.9 1012.5
04 13:53 S 8 G 20 10.00 Partly Cloudy SCT055 97 72 45% 106 29.92 1013.1
04 12:53 S 12 G 18 10.00 Fair CLR 96.1 73 96.1 73 48% 106 29.93 1013.7
04 10:53 S 10 10.00 Fair CLR 89.1 73 59% 97 29.96 1014.8
04 09:53 S 7 10.00 Fair CLR 86 73 65% 93 29.96 1014.7
04 08:53 S 5 10.00 Fair CLR 82 72 72% 87 29.96 1014.8
04 07:53 S 5 10.00 Fair CLR 78.1 71.1 79% 80 29.95 1014.4
04 06:53 Calm 10.00 Fair CLR 73 71.1 81 73 94% 29.95 1014.4
04 05:53 Calm 10.00 Fair CLR 75 72 90% 74 29.94 1014.0
04 04:53 S 3 10.00 Fair CLR 77 71.1 82% 79 29.93 1013.5
04 03:53 Calm 10.00 Fair CLR 77 71.1 82% 79 29.92 1013.2
04 02:53 S 5 10.00 Fair CLR 78.1 71.1 79% 80 29.91 1013.0
04 01:53 S 3 10.00 Fair CLR 79 70 74% 82 29.92 1013.2
04 00:53 S 3 10.00 Fair CLR 82 70 95 82 67% 86 29.91 1012.9
03 23:53 SW 5 10.00 Fair CLR 82.9 70 65% 87 29.91 1012.8
03 22:53 S 5 10.00 Fair CLR 82.9 71.1 67% 88 29.91 1012.8
03 21:53 Calm 10.00 Fair CLR 84 71.1 65% 89 29.9 1012.5
03 20:53 S 6 10.00 Fair CLR 86 71.1 61% 92 29.87 1011.7
03 19:53 S 10 10.00 Fair CLR 93 69.1 46% 98 29.85 1011.0
03 18:53 S 12 G 22 10.00 Fair CLR 95 69.1 97 93 43% 101 29.85 1010.8
03 17:53 S 13 G 20 10.00 Fair CLR 96.1 70 43% 103 29.85 1010.7
03 16:53 S 12 G 24 10.00 Fair CLR 95 71.1 46% 102 29.85 1011.0
03 15:53 S 15 G 25 10.00 Fair CLR 95 72 47% 103 29.86 1011.3
03 14:53 S 14 G 24 10.00 Fair CLR 95 71.1 46% 102 29.88 1012.1
03 13:53 S 16 G 24 10.00 Fair CLR 95 72 47% 103 29.9 1012.5
03 12:53 S 17 G 26 10.00 Fair CLR 93.9 71.1 93.9 75 48% 101 29.92 1013.1
03 11:53 SE 10 G 21 10.00 Fair CLR 91.9 72 52% 100 29.94 1013.7
03 10:53 S 10 10.00 Fair CLR 88 73 61% 96 29.95 1014.2
03 09:53 S 13 10.00 Fair CLR 84.9 73 68% 92 29.96 1014.7
03 08:53 S 9 10.00 Fair CLR 82 72 72% 87 29.97 1015.1
03 07:53 S 6 10.00 Fair CLR 79 71.1 77% 82 29.97 1015.1
03 06:53 Calm 10.00 Fair CLR 75.9 71.1 84.9 73.9 85% 76 29.96 1014.6
03 05:53 S 3 10.00 Fair CLR 79 70 74% 82 29.95 1014.2
03 04:53 Calm 10.00 Fair CLR 75 71.1 88% 75 29.95 1014.2
03 03:53 Calm 10.00 Fair CLR 75.9 71.1 85% 76 29.94 1013.9
03 02:53 Calm 10.00 Fair CLR 77 71.1 82% 79 29.93 1013.5
03 01:53 S 5 10.00 Fair CLR 84 70 63% 88 29.93 1013.7
03 00:53 S 5 10.00 Fair CLR 84.9 69.1 98.1 81 59% 89 29.93 1013.4
02 23:53 S 7 10.00 Fair CLR 87.1 68 53% 91 29.92 1013.1
02 22:53 S 6 10.00 Fair CLR 87.1 69.1 55% 91 29.91 1012.9
02 21:53 Calm 10.00 Fair CLR 81 70 69% 84 29.9 1012.6
02 20:53 Calm 10.00 Fair CLR 82.9 71.1 67% 88 29.88 1012.1
02 19:53 Calm 10.00 Fair CLR 87.1 70 57% 92 29.87 1011.6
02 18:53 S 7 10.00 Fair CLR 98.1 66.9 100.9 96.1 36% 103 29.87 1011.6
02 17:53 S 10 10.00 Fair CLR 100 66.9 34% 105 29.88 1011.9
02 16:53 S 12 G 23 10.00 Fair CLR 100.9 66 32% 105 29.89 1012.1
02 15:53 S 12 G 20 10.00 Fair CLR 100.9 66 32% 105 29.91 1012.8
02 14:53 SE 7 10.00 Fair CLR 100 69.1 37% 107 29.93 1013.6
02 13:53 S 10 10.00 Fair CLR 97 69.1 40% 103 29.96 1014.7
02 12:53 S 6 10.00 Fair CLR 96.1 71.1 97 73 44% 104 29.99 1015.5
02 11:53 S 10 G 16 10.00 Fair CLR 93.9 72 49% 102 30.01 1016.5
02 10:53 Vrbl 7 10.00 Fair CLR 91 72 54% 99 30.02 1016.8
Date Time (cdt) Wind (mph) Vis. (mi.) Weather Sky Cond. Air Dwpt Max. Min. Relative Humidity Wind Chill (°F) Heat Index (°F) altimeter (in) sea level (mb) 1 hr 3 hr 6 hr
6 hour
Temperature (ºF) Pressure Precipitation (in)